首页
METAR-TAF:

METAR-TAF

机场 :

Rice Lake Regional Airport (Carl's Field)

Rice Lake, 威斯康辛州, 美国

纬度: 45-25-05N, 经度: 091-46-25W, 海拔: 337米

当前天气观测

该预报发布于8分钟前的06:55 UTC
静风
温度 2°C
湿度 47%
气压 1008 hPa
能見度: 0.4公里
阴天层高于200英尺

METAR: KRPD 200655Z AUTO 00000KT 1/4SM HZ OVC002 02/M08 A2977 RMK AO2 T00181085

时间: 02:03 (07:03 UTC)


TAF: 丢失

超过4000个机场的气象观测和天气预报(METAR&TAF报告)。

可查询的气象台以黄色和红色小点在地图上表示。

将鼠标移到小点上方,可查看气象台名称。

然后点击查看天气观测和预报。

如需切换地图:点击带黑十字的绿色按钮放大地图;点击带横线的绿色按钮缩小地图;或者点击绿色箭头查看邻近地区的地图。


METAR-TAF: